createdAt,value
2023-09-12T00:11:27.385Z,13.50
2023-09-12T00:16:20.992Z,13.50
2023-09-12T00:18:47.389Z,13.30
2023-09-12T00:35:55.009Z,13.70
2023-09-12T00:55:29.892Z,13.20
2023-09-12T00:57:56.294Z,13.20
2023-09-12T01:00:22.751Z,13.30
2023-09-12T01:12:38.786Z,12.90
2023-09-12T01:15:09.623Z,12.90
2023-09-12T01:20:04.977Z,12.90
2023-09-12T01:25:50.217Z,13.00
2023-09-12T01:28:16.734Z,13.00
2023-09-12T01:40:41.496Z,13.30
2023-09-12T01:45:34.717Z,13.10
2023-09-12T02:05:19.022Z,12.80
2023-09-12T02:07:46.855Z,12.80
2023-09-12T02:15:07.940Z,12.90
2023-09-12T02:22:27.885Z,13.00
2023-09-12T02:32:15.086Z,12.40
2023-09-12T02:39:34.924Z,12.60
2023-09-12T02:46:57.514Z,12.60
2023-09-12T02:59:10.977Z,12.40
2023-09-12T03:06:31.755Z,12.60
2023-09-12T03:11:28.658Z,12.70
2023-09-12T03:28:37.332Z,12.70
2023-09-12T03:31:17.008Z,12.20
2023-09-12T03:33:43.689Z,12.40
2023-09-12T03:41:40.445Z,11.90
2023-09-12T03:44:06.985Z,12.40
2023-09-12T03:46:33.370Z,12.30
2023-09-12T03:53:58.435Z,12.20
2023-09-12T03:56:24.809Z,12.30
2023-09-12T03:58:51.162Z,12.30
2023-09-12T04:01:17.686Z,12.30
2023-09-12T04:03:48.217Z,12.00
2023-09-12T04:08:41.756Z,11.90
2023-09-12T04:13:35.431Z,13.40
2023-09-12T04:18:29.057Z,12.10
2023-09-12T04:23:26.649Z,12.30
2023-09-12T04:28:19.766Z,11.90
2023-09-12T04:35:42.612Z,12.10
2023-09-12T04:40:36.636Z,11.90
2023-09-12T04:43:03.167Z,11.90
2023-09-12T04:50:26.019Z,12.10
2023-09-12T05:00:14.145Z,12.30
2023-09-12T05:02:40.843Z,12.40
2023-09-12T05:05:09.046Z,12.60
2023-09-12T05:10:05.633Z,12.50
2023-09-12T05:15:12.781Z,12.90
2023-09-12T05:20:08.253Z,13.40
2023-09-12T05:22:34.720Z,13.70
2023-09-12T05:25:01.079Z,14.00
2023-09-12T05:29:55.139Z,14.10
2023-09-12T05:35:18.999Z,14.40
2023-09-12T05:37:50.579Z,14.70
2023-09-12T05:45:15.200Z,14.90
2023-09-12T05:50:08.912Z,17.10
2023-09-12T05:52:38.724Z,15.40
2023-09-12T05:55:05.380Z,15.50
2023-09-12T05:57:35.893Z,15.60
2023-09-12T06:00:11.772Z,15.70
2023-09-12T06:02:41.017Z,16.10
2023-09-12T06:05:09.399Z,16.20
2023-09-12T06:15:02.013Z,16.80
2023-09-12T06:19:58.304Z,17.10
2023-09-12T06:32:16.170Z,17.80
2023-09-12T06:34:43.250Z,17.90
2023-09-12T06:42:03.869Z,18.10
2023-09-12T06:44:31.299Z,19.20
2023-09-12T06:51:51.509Z,19.50
2023-09-12T07:06:33.705Z,22.90
2023-09-12T07:13:54.140Z,25.10
2023-09-12T07:16:21.123Z,24.80
2023-09-12T07:18:51.001Z,25.00
2023-09-12T07:21:17.491Z,26.10
2023-09-12T07:26:14.908Z,26.70
2023-09-12T07:28:43.283Z,27.10
2023-09-12T07:46:00.601Z,29.30
2023-09-12T07:48:37.030Z,27.70
2023-09-12T07:51:16.322Z,27.70
2023-09-12T08:01:10.376Z,28.60
2023-09-12T08:06:04.871Z,30.40
2023-09-12T08:08:32.474Z,29.70
2023-09-12T08:10:58.964Z,30.10
2023-09-12T08:15:56.764Z,31.30
2023-09-12T08:18:28.527Z,31.60
2023-09-12T08:23:23.477Z,31.50
2023-09-12T08:30:48.446Z,30.20
2023-09-12T08:33:15.065Z,30.30
2023-09-12T08:35:41.481Z,31.10
2023-09-12T08:40:39.415Z,31.90
2023-09-12T08:43:05.875Z,32.90
2023-09-12T08:48:03.401Z,31.20
2023-09-12T08:58:05.903Z,31.80
2023-09-12T09:00:32.480Z,32.20
2023-09-12T09:02:59.706Z,32.50
2023-09-12T09:05:27.586Z,32.80
2023-09-12T09:10:34.004Z,32.60
2023-09-12T09:13:11.711Z,32.80
2023-09-12T09:15:42.644Z,32.20
2023-09-12T09:18:12.767Z,32.40
2023-09-12T09:20:40.559Z,32.90
2023-09-12T09:23:10.441Z,32.80
2023-09-12T09:25:40.106Z,35.50
2023-09-12T09:28:16.325Z,33.20
2023-09-12T09:30:44.338Z,33.40
2023-09-12T09:33:10.837Z,33.90
2023-09-12T09:35:37.454Z,34.00
2023-09-12T09:38:04.880Z,33.70
2023-09-12T09:40:33.469Z,33.20
2023-09-12T09:43:00.163Z,33.60
2023-09-12T09:45:28.273Z,33.20
2023-09-12T09:48:07.516Z,32.90
2023-09-12T09:50:40.705Z,33.60
2023-09-12T09:58:17.641Z,33.10
2023-09-12T10:00:48.291Z,33.10
2023-09-12T10:10:38.803Z,32.10
2023-09-12T10:18:14.307Z,32.10
2023-09-12T10:20:53.337Z,32.30
2023-09-12T10:24:06.444Z,32.30
2023-09-12T10:29:00.674Z,32.30
2023-09-12T10:43:50.524Z,33.00
2023-09-12T10:46:17.785Z,33.20
2023-09-12T10:48:44.458Z,32.20
2023-09-12T10:51:11.520Z,32.70
2023-09-12T10:53:37.881Z,32.80
2023-09-12T10:57:08.740Z,32.30
2023-09-12T10:59:38.121Z,32.70
2023-09-12T11:02:36.541Z,32.90
2023-09-12T11:05:07.604Z,33.10
2023-09-12T11:08:01.509Z,32.80
2023-09-12T11:10:29.277Z,33.10
2023-09-12T11:12:57.897Z,32.30
2023-09-12T11:15:32.579Z,33.00
2023-09-12T11:18:05.580Z,32.60
2023-09-12T11:21:00.183Z,33.10
2023-09-12T11:23:26.555Z,32.70
2023-09-12T11:26:07.251Z,32.50
2023-09-12T11:33:27.507Z,32.20
2023-09-12T11:35:55.405Z,31.90
2023-09-12T11:38:29.895Z,32.00
2023-09-12T11:40:56.381Z,32.30
2023-09-12T11:43:24.111Z,32.30
2023-09-12T11:45:52.876Z,32.30
2023-09-12T11:48:19.944Z,32.20
2023-09-12T11:50:56.894Z,32.20
2023-09-12T11:53:26.304Z,32.10
2023-09-12T11:55:59.304Z,32.20
2023-09-12T11:58:28.513Z,32.40
2023-09-12T12:00:56.501Z,32.50
2023-09-12T12:03:24.773Z,31.60
2023-09-12T12:05:51.747Z,31.70
2023-09-12T12:10:54.826Z,32.70
2023-09-12T12:13:21.885Z,32.10
2023-09-12T12:15:48.324Z,31.60
2023-09-12T12:18:15.133Z,31.80
2023-09-12T12:20:41.957Z,32.40
2023-09-12T12:23:08.342Z,32.50
2023-09-12T12:25:35.168Z,32.90
2023-09-12T12:28:02.718Z,32.70
2023-09-12T12:30:36.088Z,32.50
2023-09-12T12:33:22.928Z,32.50
2023-09-12T12:36:57.004Z,32.50
2023-09-12T12:39:24.750Z,32.70
2023-09-12T12:41:54.223Z,32.60
2023-09-12T12:44:22.805Z,32.60
2023-09-12T12:46:50.561Z,32.80
2023-09-12T12:49:17.032Z,33.00
2023-09-12T12:51:43.552Z,32.50
2023-09-12T12:54:10.168Z,33.00
2023-09-12T12:56:36.513Z,33.20
2023-09-12T12:59:04.633Z,30.50
2023-09-12T13:01:31.372Z,33.10
2023-09-12T13:03:57.997Z,32.90
2023-09-12T13:06:26.084Z,32.90
2023-09-12T13:08:52.467Z,32.70
2023-09-12T13:11:19.148Z,32.50
2023-09-12T13:13:46.533Z,32.60
2023-09-12T13:16:13.895Z,32.30
2023-09-12T13:18:40.806Z,32.20
2023-09-12T13:21:07.200Z,32.00
2023-09-12T13:23:38.067Z,31.80
2023-09-12T13:26:07.014Z,31.60
2023-09-12T13:28:33.365Z,31.70
2023-09-12T13:30:59.781Z,31.40
2023-09-12T13:33:26.329Z,31.40
2023-09-12T13:35:53.001Z,31.30
2023-09-12T13:38:20.001Z,31.60
2023-09-12T13:40:49.821Z,31.50
2023-09-12T13:43:16.589Z,31.40
2023-09-12T13:45:43.162Z,31.60
2023-09-12T13:48:14.534Z,31.60
2023-09-12T13:50:45.597Z,31.60
2023-09-12T13:53:11.977Z,31.90
2023-09-12T13:55:38.425Z,32.00
2023-09-12T13:58:05.627Z,32.00
2023-09-12T14:00:38.376Z,32.00
2023-09-12T14:03:06.918Z,31.80
2023-09-12T14:05:44.377Z,31.80
2023-09-12T14:08:13.074Z,32.00
2023-09-12T14:10:40.542Z,32.00
2023-09-12T14:13:27.627Z,31.90
2023-09-12T14:15:57.762Z,31.10
2023-09-12T14:18:26.616Z,30.70
2023-09-12T14:20:53.552Z,30.80
2023-09-12T14:23:21.822Z,30.70
2023-09-12T14:25:49.603Z,30.70
2023-09-12T14:28:16.558Z,31.10
2023-09-12T14:30:45.770Z,31.20
2023-09-12T14:33:14.286Z,31.20
2023-09-12T14:35:44.839Z,31.20
2023-09-12T14:38:14.283Z,31.20
2023-09-12T14:40:42.442Z,31.30
2023-09-12T14:43:10.644Z,31.30
2023-09-12T14:45:37.068Z,31.10
2023-09-12T14:48:03.988Z,30.90
2023-09-12T14:50:40.262Z,30.70
2023-09-12T14:53:08.936Z,30.80
2023-09-12T14:55:35.290Z,30.60
2023-09-12T14:58:01.705Z,30.30
2023-09-12T15:00:28.790Z,30.30
2023-09-12T15:02:55.620Z,32.50
2023-09-12T15:05:22.061Z,30.10
2023-09-12T15:07:48.451Z,30.10
2023-09-12T15:10:14.797Z,30.10
2023-09-12T15:12:41.210Z,29.90
2023-09-12T15:15:08.881Z,29.70
2023-09-12T15:17:35.261Z,29.90
2023-09-12T15:20:01.679Z,29.80
2023-09-12T15:22:29.264Z,29.70
2023-09-12T15:24:55.961Z,29.50
2023-09-12T15:27:22.525Z,29.50
2023-09-12T15:29:48.935Z,28.70
2023-09-12T15:32:15.643Z,29.10
2023-09-12T15:34:42.025Z,28.80
2023-09-12T15:39:43.404Z,28.70
2023-09-12T15:42:10.722Z,28.40
2023-09-12T15:47:28.789Z,28.10
2023-09-12T15:52:22.003Z,28.20
2023-09-12T15:59:42.616Z,27.50
2023-09-12T16:02:09.141Z,27.20
